Time;durP1;ratioP1;P1;durP2;ratioP2;P2;SDS_P1;SDS_P2;PMS_P1;PMS_P2;Temp;Humidity;BMP_temperature;BMP_pressure;BME280_temperature;BME280_humidity;BME280_pressure;Samples;Min_cycle;Max_cycle;Signal;HPM_P1;HPM_P2
2023/01/30 00:01:18;;;;;;;;;26.75;21.75;;;;;4.84;100.00;102455.19;4997713;28;45400;-80
2023/01/30 00:03:44;;;;;;;;;34.50;24.25;;;;;4.86;100.00;102447.47;4979988;28;47336;-81
2023/01/30 00:06:09;;;;;;;;;35.00;23.25;;;;;4.91;100.00;102445.03;4980044;28;45485;-81
2023/01/30 00:08:35;;;;;;;;;19.50;19.00;;;;;5.02;100.00;102452.16;4997713;28;45298;-81
2023/01/30 00:11:09;;;;;;;;;22.25;18.00;;;;;5.11;100.00;102445.41;4978879;28;68325;-81
2023/01/30 00:13:34;;;;;;;;;36.50;24.25;;;;;5.17;100.00;102437.84;4979923;28;45589;-81
2023/01/30 00:16:00;;;;;;;;;26.75;21.50;;;;;5.20;100.00;102431.03;4997535;28;45350;-81
2023/01/30 00:18:25;;;;;;;;;23.00;16.75;;;;;5.32;100.00;102427.81;4963647;28;45218;-81
2023/01/30 00:20:58;;;;;;;;;22.25;17.25;;;;;5.38;100.00;102414.13;4979774;28;45363;-81
2023/01/30 00:23:24;;;;;;;;;20.50;17.00;;;;;5.48;100.00;102407.44;4979769;28;47414;-81
2023/01/30 00:25:49;;;;;;;;;27.75;20.75;;;;;5.47;100.00;102413.47;4997100;28;46033;-80
2023/01/30 00:28:15;;;;;;;;;35.00;20.25;;;;;5.48;100.00;102415.19;4997108;28;46418;-81
2023/01/30 00:30:40;;;;;;;;;21.25;17.00;;;;;5.50;100.00;102411.81;4996572;28;61769;-81
2023/01/30 00:33:05;;;;;;;;;25.75;19.00;;;;;5.52;100.00;102401.50;4980968;28;47004;-81
2023/01/30 00:35:31;;;;;;;;;26.50;20.75;;;;;5.52;100.00;102402.38;4995010;28;70968;-81
2023/01/30 00:37:57;;;;;;;;;17.25;13.50;;;;;5.54;100.00;102394.66;5028503;28;59996;-81
2023/01/30 00:40:24;;;;;;;;;25.75;19.00;;;;;5.62;100.00;102404.25;4995630;28;45517;-81
2023/01/30 00:48:17;;;;;;;;;21.25;16.00;;;;;5.59;100.00;102385.25;4995978;28;45409;-81
2023/01/30 00:50:42;;;;;;;;;24.50;19.25;;;;;5.62;100.00;102374.97;4996302;28;62416;-81
2023/01/30 00:53:12;;;;;;;;;30.00;18.00;;;;;5.63;100.00;102369.00;4996227;28;57844;-81
2023/01/30 00:55:37;;;;;;;;;32.00;19.25;;;;;5.66;100.00;102365.56;4995281;28;45330;-81
2023/01/30 00:58:03;;;;;;;;;17.00;14.50;;;;;5.70;100.00;102359.59;4996743;28;45575;-82
2023/01/30 01:00:28;;;;;;;;;18.00;14.00;;;;;5.68;100.00;102362.16;4995739;28;45389;-81
2023/01/30 01:02:53;;;;;;;;;22.25;16.50;;;;;5.69;100.00;102363.06;4996493;28;49763;-81
2023/01/30 01:05:19;;;;;;;;;27.50;14.75;;;;;5.73;100.00;102354.50;4995713;28;71847;-81
2023/01/30 01:07:44;;;;;;;;;24.00;19.00;;;;;5.74;100.00;102358.81;4994919;28;61419;-81
2023/01/30 01:10:15;;;;;;;;;20.25;17.00;;;;;5.75;100.00;102352.81;4977839;28;66546;-81
2023/01/30 01:12:43;;;;;;;;;20.75;13.50;;;;;5.75;100.00;102345.91;4996136;28;47016;-81
2023/01/30 01:15:12;;;;;;;;;28.50;15.25;;;;;5.78;100.00;102342.53;4995273;28;45872;-81
2023/01/30 01:17:39;;;;;;;;;28.25;15.75;;;;;5.77;100.00;102327.88;4996749;28;45536;-81
2023/01/30 01:20:06;;;;;;;;;22.75;15.75;;;;;5.81;100.00;102337.41;4995251;28;45470;-81
2023/01/30 01:22:31;;;;;;;;;31.00;20.25;;;;;5.82;100.00;102329.69;4995851;28;45393;-81
2023/01/30 01:24:56;;;;;;;;;22.50;17.00;;;;;5.87;100.00;102327.19;4994072;28;64774;-81
2023/01/30 01:27:22;;;;;;;;;19.75;15.00;;;;;5.85;100.00;102327.97;4994442;28;64281;-81
2023/01/30 01:29:47;;;;;;;;;26.75;17.00;;;;;5.80;100.00;102322.75;4996363;28;45354;-81
2023/01/30 01:32:12;;;;;;;;;12.25;12.25;;;;;5.82;100.00;102326.25;4995323;28;71488;-81
2023/01/30 01:34:38;;;;;;;;;24.00;15.50;;;;;5.82;100.00;102328.81;4987182;28;45480;-81
2023/01/30 01:37:03;;;;;;;;;23.25;17.00;;;;;5.85;100.00;102328.88;4959368;28;45383;-81
2023/01/30 01:41:00;;;;;;;;;28.75;13.75;;;;;5.82;100.00;102321.06;4975444;28;65427;-81
2023/01/30 01:42:13;;;;;;;;;15.75;15.75;;;;;5.90;100.00;102327.22;4976264;28;45436;-81
2023/01/30 01:45:03;;;;;;;;;20.25;12.25;;;;;5.96;100.00;102323.88;4958085;28;71498;-81
2023/01/30 01:47:29;;;;;;;;;26.00;19.00;;;;;5.95;100.00;102319.53;4976710;28;45372;-81
2023/01/30 01:49:54;;;;;;;;;20.75;16.25;;;;;5.98;100.00;102314.44;4959087;28;45416;-80
2023/01/30 01:52:20;;;;;;;;;22.75;15.25;;;;;5.98;100.00;102323.09;4958142;28;68500;-81
2023/01/30 01:54:46;;;;;;;;;17.00;15.00;;;;;6.00;100.00;102333.47;4958525;28;45408;-81
2023/01/30 01:57:21;;;;;;;;;22.50;14.25;;;;;5.98;100.00;102324.78;4959069;28;45534;-81
2023/01/30 02:00:10;;;;;;;;;17.00;13.50;;;;;5.97;100.00;102304.97;4976467;28;45560;-80
2023/01/30 02:02:37;;;;;;;;;21.50;14.50;;;;;5.98;100.00;102317.91;4959105;28;46532;-81
2023/01/30 02:05:05;;;;;;;;;22.25;15.00;;;;;5.94;100.00;102312.63;4976186;28;45319;-81
2023/01/30 02:07:39;;;;;;;;;14.75;11.00;;;;;5.91;100.00;102308.28;4958860;28;45466;-81
2023/01/30 02:10:10;;;;;;;;;19.75;13.50;;;;;5.89;100.00;102309.97;4976181;28;45378;-80
2023/01/30 02:12:37;;;;;;;;;22.50;15.00;;;;;5.90;100.00;102310.84;4958710;28;47002;-81
2023/01/30 02:15:03;;;;;;;;;20.00;15.75;;;;;5.90;100.00;102310.84;4942428;28;45898;-81
2023/01/30 02:17:28;;;;;;;;;18.00;14.50;;;;;5.88;100.00;102312.53;4976167;28;45313;-81
2023/01/30 02:20:31;;;;;;;;;21.75;15.50;;;;;5.87;100.00;102298.75;4976171;28;45220;-81
2023/01/30 02:23:21;;;;;;;;;22.25;15.00;;;;;5.87;100.00;102305.63;4975550;28;45418;-80
2023/01/30 02:26:11;;;;;;;;;25.50;16.50;;;;;5.82;100.00;102314.19;4976041;28;45391;-81
2023/01/30 02:28:58;;;;;;;;;17.25;14.75;;;;;5.77;100.00;102305.47;4976153;28;45469;-81
2023/01/30 02:31:28;;;;;;;;;18.50;13.75;;;;;5.79;100.00;102316.72;4958534;28;45530;-81
2023/01/30 02:34:00;;;;;;;;;20.50;14.75;;;;;5.77;100.00;102300.31;4961974;28;48061;-81
2023/01/30 02:36:40;;;;;;;;;27.00;14.25;;;;;5.72;100.00;102306.25;4998530;28;45799;-81
2023/01/30 02:39:07;;;;;;;;;20.25;15.00;;;;;5.79;100.00;102308.97;4981539;28;45266;-81
2023/01/30 02:41:41;;;;;;;;;22.50;14.75;;;;;5.79;100.00;102303.81;4981464;28;45442;-81
2023/01/30 02:44:17;;;;;;;;;22.25;18.00;;;;;5.82;100.00;102301.25;4981338;28;46486;-81
2023/01/30 02:47:00;;;;;;;;;29.25;12.75;;;;;5.85;100.00;102313.38;4981304;28;45329;-80
2023/01/30 02:49:55;;;;;;;;;8.00;8.00;;;;;5.86;100.00;102320.25;4998727;28;45380;-80
2023/01/30 02:52:22;;;;;;;;;23.00;10.75;;;;;5.85;100.00;102315.06;4987917;28;45623;-81
2023/01/30 02:54:47;;;;;;;;;19.75;13.25;;;;;5.83;100.00;102309.88;4997785;28;71932;-80
2023/01/30 02:57:23;;;;;;;;;17.50;12.75;;;;;5.87;100.00;102314.25;4980474;28;62356;-81
2023/01/30 02:59:56;;;;;;;;;17.75;15.00;;;;;5.83;100.00;102307.28;4998777;28;45366;-81
2023/01/30 03:02:43;;;;;;;;;15.25;13.25;;;;;5.87;100.00;102319.44;4981112;28;45547;-81
2023/01/30 03:05:23;;;;;;;;;28.75;17.25;;;;;5.81;100.00;102315.03;4998217;28;45423;-80
2023/01/30 03:08:24;;;;;;;;;14.25;10.50;;;;;5.72;100.00;102308.81;4998466;28;45854;-81
2023/01/30 03:11:09;;;;;;;;;24.00;14.75;;;;;5.68;100.00;102322.53;4980989;28;45383;-81
2023/01/30 03:13:53;;;;;;;;;27.00;16.50;;;;;5.60;100.00;102325.00;4980173;28;67756;-81
2023/01/30 03:16:26;;;;;;;;;21.75;13.75;;;;;5.49;100.00;102306.72;4980718;28;46384;-81
2023/01/30 03:18:51;;;;;;;;;22.50;16.75;;;;;5.36;100.00;102305.66;4998368;28;45319;-79
2023/01/30 03:21:16;;;;;;;;;24.25;15.75;;;;;5.36;100.00;102304.78;4980253;28;47341;-81
2023/01/30 03:23:44;;;;;;;;;23.75;13.75;;;;;5.32;100.00;102309.03;4998293;28;45551;-81
2023/01/30 03:26:15;;;;;;;;;19.25;14.25;;;;;5.38;100.00;102298.78;4998136;28;45454;-81
2023/01/30 03:28:40;;;;;;;;;18.25;15.50;;;;;5.48;100.00;102302.44;4998328;28;45881;-81
2023/01/30 03:31:06;;;;;;;;;20.75;15.00;;;;;5.54;100.00;102301.66;4979874;28;63020;-81
2023/01/30 03:33:31;;;;;;;;;18.75;14.00;;;;;5.62;100.00;102305.22;4985561;28;45521;-81
2023/01/30 03:35:56;;;;;;;;;24.75;18.00;;;;;5.68;100.00;102297.56;4996804;28;65064;-81
2023/01/30 03:38:22;;;;;;;;;21.00;15.00;;;;;5.76;100.00;102310.66;4997571;28;55238;-81
2023/01/30 03:40:47;;;;;;;;;15.25;14.25;;;;;5.85;100.00;102304.72;4996824;28;47485;-81
2023/01/30 03:43:12;;;;;;;;;17.75;13.00;;;;;5.91;100.00;102315.19;4996089;28;66897;-81
2023/01/30 03:45:38;;;;;;;;;29.50;16.25;;;;;5.93;100.00;102301.44;4996966;28;61530;-81
2023/01/30 03:48:03;;;;;;;;;19.00;16.00;;;;;5.95;100.00;102286.84;4997740;28;45247;-81
2023/01/30 03:50:29;;;;;;;;;22.25;15.50;;;;;5.95;100.00;102296.28;4996599;28;45418;-80
2023/01/30 03:52:54;;;;;;;;;18.25;14.00;;;;;5.96;100.00;102290.28;4997101;28;66298;-81
2023/01/30 03:55:20;;;;;;;;;19.00;12.25;;;;;5.96;100.00;102296.34;4996920;28;68890;-81
2023/01/30 03:57:46;;;;;;;;;13.25;12.50;;;;;5.91;100.00;102297.09;4997640;28;45786;-81
2023/01/30 04:00:11;;;;;;;;;17.50;11.25;;;;;5.88;100.00;102297.91;4995669;28;64954;-80
2023/01/30 04:02:37;;;;;;;;;17.50;13.00;;;;;5.85;100.00;102284.94;4996473;28;45386;-82
2023/01/30 04:05:03;;;;;;;;;24.50;15.50;;;;;5.89;100.00;102291.00;4997325;28;46140;-81
2023/01/30 04:07:28;;;;;;;;;23.25;17.00;;;;;5.85;100.00;102282.38;4996420;28;45960;-81
2023/01/30 04:09:54;;;;;;;;;24.00;15.00;;;;;5.85;100.00;102281.47;4997843;28;45349;-81
2023/01/30 04:12:19;;;;;;;;;20.50;11.50;;;;;5.85;100.00;102284.94;4996923;28;62429;-81
2023/01/30 04:14:44;;;;;;;;;17.50;16.50;;;;;5.87;100.00;102282.34;4995573;28;66985;-81
2023/01/30 04:17:10;;;;;;;;;29.50;18.25;;;;;5.91;100.00;102279.00;4995524;28;66009;-81
2023/01/30 04:19:35;;;;;;;;;18.75;14.25;;;;;5.82;100.00;102265.06;4996421;28;63663;-81
2023/01/30 04:22:00;;;;;;;;;19.25;14.25;;;;;5.82;100.00;102257.31;4996723;28;64261;-81
2023/01/30 04:24:26;;;;;;;;;24.75;16.00;;;;;5.78;100.00;102259.84;4979232;28;57785;-81
2023/01/30 04:26:51;;;;;;;;;16.25;14.50;;;;;5.69;100.00;102264.88;4979333;28;54164;-81
2023/01/30 04:29:16;;;;;;;;;20.50;14.25;;;;;5.62;100.00;102254.44;4996613;28;61264;-80
2023/01/30 04:31:42;;;;;;;;;20.00;15.00;;;;;5.56;100.00;102254.34;4995377;28;63401;-81
2023/01/30 04:34:07;;;;;;;;;21.50;14.00;;;;;5.54;100.00;102248.28;4998928;28;63548;-81
2023/01/30 04:36:32;;;;;;;;;17.00;12.50;;;;;5.58;100.00;102257.81;5016219;28;68708;-81
2023/01/30 04:38:58;;;;;;;;;28.75;13.50;;;;;5.54;100.00;102243.13;4998310;28;68526;-81
2023/01/30 04:41:23;;;;;;;;;19.50;13.50;;;;;5.65;100.00;102248.47;5016948;28;45386;-81
2023/01/30 04:43:48;;;;;;;;;21.00;14.75;;;;;5.73;100.00;102254.59;5015865;28;69808;-81
2023/01/30 04:46:14;;;;;;;;;20.00;15.00;;;;;5.78;100.00;102255.53;5016490;28;59847;-81
2023/01/30 04:48:39;;;;;;;;;14.25;13.75;;;;;5.89;100.00;102252.22;5016641;28;45425;-81
2023/01/30 04:51:04;;;;;;;;;19.00;15.00;;;;;5.90;100.00;102246.22;5014758;28;67686;-81
2023/01/30 04:53:30;;;;;;;;;17.25;14.00;;;;;5.96;100.00;102259.28;5015268;28;54545;-81
2023/01/30 04:55:55;;;;;;;;;17.00;12.25;;;;;5.98;100.00;102257.56;5013835;28;69316;-81
2023/01/30 04:58:20;;;;;;;;;19.25;13.00;;;;;5.95;100.00;102247.19;5005071;28;45810;-81
2023/01/30 05:00:46;;;;;;;;;18.00;11.00;;;;;6.08;100.00;102262.03;4995889;28;63925;-81
2023/01/30 05:03:12;;;;;;;;;21.75;11.75;;;;;6.08;100.00;102256.00;4995206;28;47042;-81
2023/01/30 05:05:37;;;;;;;;;15.50;11.50;;;;;6.14;100.00;102276.78;4995608;28;45584;-81
2023/01/30 05:08:03;;;;;;;;;15.75;10.00;;;;;6.12;100.00;102250.88;4996873;28;45407;-81
2023/01/30 05:10:28;;;;;;;;;24.25;14.75;;;;;6.19;100.00;102264.78;4996629;28;45519;-81
2023/01/30 05:12:54;;;;;;;;;21.25;17.00;;;;;6.20;100.00;102269.09;4996439;28;47131;-81
2023/01/30 05:15:19;;;;;;;;;24.50;16.50;;;;;6.16;100.00;102259.56;4995525;28;45404;-81
2023/01/30 05:17:44;;;;;;;;;14.75;11.00;;;;;6.14;100.00;102258.66;4995773;28;57496;-81
2023/01/30 05:20:11;;;;;;;;;17.25;11.75;;;;;6.07;100.00;102247.38;4996060;28;59737;-82
2023/01/30 05:22:37;;;;;;;;;17.75;13.25;;;;;6.07;100.00;102251.69;4996346;28;45623;-81
2023/01/30 05:25:02;;;;;;;;;15.50;11.00;;;;;6.01;100.00;102249.88;4996255;28;45956;-81
2023/01/30 05:27:27;;;;;;;;;18.50;14.25;;;;;5.99;100.00;102256.75;4996549;28;45350;-80
2023/01/30 05:29:53;;;;;;;;;12.00;11.50;;;;;5.99;100.00;102243.81;4994356;28;59242;-79
2023/01/30 05:32:19;;;;;;;;;18.50;16.00;;;;;5.99;100.00;102247.25;4995551;28;67413;-81
2023/01/30 05:34:44;;;;;;;;;13.75;10.75;;;;;6.03;100.00;102248.19;4994952;28;45252;-81
2023/01/30 05:37:11;;;;;;;;;17.00;11.00;;;;;6.07;100.00;102249.94;4995202;28;45483;-81
2023/01/30 05:39:36;;;;;;;;;28.25;15.50;;;;;6.07;100.00;102247.38;5011814;28;45489;-81
2023/01/30 05:42:02;;;;;;;;;22.25;12.00;;;;;6.08;100.00;102250.84;4995043;28;46631;-81
2023/01/30 05:44:27;;;;;;;;;26.75;15.00;;;;;6.12;100.00;102225.03;4994685;28;45365;-80
2023/01/30 05:46:53;;;;;;;;;13.50;11.00;;;;;6.15;100.00;102226.81;4995711;28;56324;-81
2023/01/30 05:49:18;;;;;;;;;15.25;11.25;;;;;6.03;100.00;102222.31;4995286;28;63234;-80
2023/01/30 05:51:43;;;;;;;;;20.25;11.50;;;;;6.03;100.00;102234.38;4996266;28;45445;-80
2023/01/30 05:54:09;;;;;;;;;18.50;13.00;;;;;5.98;100.00;102239.47;4996009;28;45433;-81
2023/01/30 05:56:34;;;;;;;;;22.00;14.00;;;;;5.95;100.00;102226.50;4996341;28;45668;-80
2023/01/30 05:59:00;;;;;;;;;22.75;12.00;;;;;5.91;100.00;102225.59;4994908;28;63935;-81
2023/01/30 06:01:27;;;;;;;;;17.50;12.75;;;;;5.89;100.00;102219.53;4994505;28;45554;-81
2023/01/30 06:03:52;;;;;;;;;19.50;14.00;;;;;5.92;100.00;102224.72;4996050;28;45913;-80
2023/01/30 06:06:18;;;;;;;;;20.00;11.00;;;;;5.93;100.00;102212.69;4996143;28;45396;-81
2023/01/30 06:08:43;;;;;;;;;15.50;10.25;;;;;5.95;100.00;102208.41;4995804;28;45333;-80
2023/01/30 06:11:12;;;;;;;;;17.25;11.00;;;;;6.01;100.00;102224.88;4995795;28;46481;-81
2023/01/30 06:13:38;;;;;;;;;14.00;7.00;;;;;6.04;100.00;102225.81;4995520;28;45731;-81
2023/01/30 06:16:05;;;;;;;;;17.00;11.25;;;;;6.04;100.00;102220.63;4995993;28;45385;-80
2023/01/30 06:18:30;;;;;;;;;14.75;10.50;;;;;6.09;100.00;102226.72;4996007;28;45474;-81
2023/01/30 06:20:56;;;;;;;;;19.75;16.00;;;;;6.17;100.00;102220.81;4993704;28;71889;-82
2023/01/30 06:23:25;;;;;;;;;14.75;11.50;;;;;6.20;100.00;102225.13;4994586;28;45334;-82
2023/01/30 06:25:51;;;;;;;;;18.50;14.25;;;;;6.25;100.00;102226.06;4995868;28;45492;-79
2023/01/30 06:28:17;;;;;;;;;12.00;11.50;;;;;6.29;100.00;102240.75;4995397;28;45352;-82
2023/01/30 06:30:42;;;;;;;;;15.25;11.25;;;;;6.31;100.00;102236.47;4995703;28;45504;-82
2023/01/30 06:33:08;;;;;;;;;13.50;11.25;;;;;6.35;100.00;102243.44;4994912;28;62656;-81
2023/01/30 06:35:36;;;;;;;;;18.00;11.25;;;;;6.36;100.00;102250.34;4978210;28;45416;-81
2023/01/30 06:38:02;;;;;;;;;12.50;7.25;;;;;6.42;100.00;102256.44;5015548;28;45532;-80
2023/01/30 06:40:27;;;;;;;;;14.25;11.75;;;;;6.46;100.00;102260.81;5014943;28;58088;-81
2023/01/30 06:42:52;;;;;;;;;17.00;8.00;;;;;6.43;100.00;102247.84;5014112;28;66296;-81
2023/01/30 06:45:18;;;;;;;;;13.00;11.75;;;;;6.43;100.00;102251.31;5014610;28;65199;-80
2023/01/30 06:47:51;;;;;;;;;14.00;9.50;;;;;6.46;100.00;102250.47;5015345;28;45326;-80
2023/01/30 06:50:19;;;;;;;;;18.50;12.25;;;;;6.44;100.00;102255.59;4997569;28;45411;-80
2023/01/30 06:52:46;;;;;;;;;17.75;14.00;;;;;6.44;100.00;102244.41;5015055;28;45463;-80
2023/01/30 06:55:14;;;;;;;;;19.00;13.50;;;;;6.47;100.00;102257.38;5015440;28;45432;-80
2023/01/30 06:57:39;;;;;;;;;10.50;10.50;;;;;6.42;100.00;102257.31;4992496;28;45514;-80
2023/01/30 07:00:07;;;;;;;;;13.50;12.50;;;;;6.47;100.00;102265.16;4995215;28;46662;-80
2023/01/30 07:02:34;;;;;;;;;14.50;5.00;;;;;6.49;100.00;102264.31;4995093;28;45236;-80
2023/01/30 07:05:01;;;;;;;;;15.00;14.25;;;;;6.50;100.00;102281.56;4978015;28;45413;-80
2023/01/30 07:07:27;;;;;;;;;11.75;8.25;;;;;6.52;100.00;102276.41;4995310;28;45394;-80
2023/01/30 07:09:52;;;;;;;;;17.00;12.00;;;;;6.49;100.00;102269.47;4977766;28;45618;-80
2023/01/30 07:12:17;;;;;;;;;15.75;13.00;;;;;6.54;100.00;102277.31;4976525;28;64715;-80
2023/01/30 07:14:43;;;;;;;;;8.00;4.00;;;;;6.51;100.00;102278.13;4995127;28;45930;-81
2023/01/30 07:17:08;;;;;;;;;16.75;12.00;;;;;6.53;100.00;102286.78;4994742;28;55588;-81
2023/01/30 07:19:33;;;;;;;;;17.50;12.50;;;;;6.48;100.00;102288.44;4995508;28;63381;-81
2023/01/30 07:21:59;;;;;;;;;17.50;13.75;;;;;6.49;100.00;102282.41;4997563;28;66931;-80
2023/01/30 07:24:24;;;;;;;;;14.50;13.50;;;;;6.57;100.00;102300.63;4997673;28;62206;-80
2023/01/30 07:26:49;;;;;;;;;13.75;9.00;;;;;6.57;100.00;102300.63;4997296;28;62312;-80
2023/01/30 07:29:15;;;;;;;;;19.50;10.75;;;;;6.56;100.00;102294.59;4963635;28;68295;-80
2023/01/30 07:31:40;;;;;;;;;12.25;8.75;;;;;6.51;100.00;102298.81;4998297;28;45291;-80
2023/01/30 07:34:05;;;;;;;;;14.75;11.25;;;;;6.48;100.00;102305.66;4989590;28;58356;-80
2023/01/30 07:36:32;;;;;;;;;15.75;10.50;;;;;6.42;100.00;102319.38;4996158;28;63615;-80
2023/01/30 07:38:58;;;;;;;;;9.50;7.50;;;;;6.36;100.00;102317.59;4997947;28;46074;-80
2023/01/30 07:41:23;;;;;;;;;17.75;14.50;;;;;6.30;100.00;102312.34;4997587;28;45313;-80
2023/01/30 07:43:49;;;;;;;;;23.75;13.75;;;;;6.26;100.00;102312.25;5013158;28;45751;-80
2023/01/30 07:46:14;;;;;;;;;6.50;2.00;;;;;6.15;100.00;102305.25;4998152;28;45308;-80
2023/01/30 07:48:39;;;;;;;;;15.50;6.75;;;;;6.13;100.00;102306.03;4997546;28;60980;-80
2023/01/30 07:51:05;;;;;;;;;23.00;15.00;;;;;6.15;100.00;102300.06;4997008;28;68053;-82
2023/01/30 07:53:30;;;;;;;;;18.25;14.00;;;;;6.13;100.00;102306.03;4998210;28;45379;-81
2023/01/30 07:55:55;;;;;;;;;14.50;9.50;;;;;6.08;100.00;102305.13;4997332;28;65995;-82
2023/01/30 07:58:21;;;;;;;;;23.75;14.75;;;;;6.09;100.00;102299.09;4996336;28;52552;-81
2023/01/30 08:00:46;;;;;;;;;22.50;15.25;;;;;6.14;100.00;102305.22;4997222;28;61600;-81
2023/01/30 08:03:15;;;;;;;;;17.75;11.00;;;;;6.16;100.00;102306.97;4997522;28;50200;-81
2023/01/30 08:05:41;;;;;;;;;14.75;10.50;;;;;6.17;100.00;102307.84;4997959;28;45299;-81
2023/01/30 08:08:06;;;;;;;;;11.50;10.75;;;;;6.21;100.00;102312.22;4997776;28;46675;-81
2023/01/30 08:10:31;;;;;;;;;14.00;11.00;;;;;6.22;100.00;102305.31;4997409;28;45374;-80
2023/01/30 08:12:57;;;;;;;;;14.50;12.75;;;;;6.29;100.00;102305.41;4996054;28;53128;-81
2023/01/30 08:15:22;;;;;;;;;11.00;7.75;;;;;6.32;100.00;102300.31;4997662;28;45423;-81
2023/01/30 08:17:55;;;;;;;;;16.25;12.00;;;;;6.33;100.00;102302.06;4997442;28;49445;-81
2023/01/30 08:20:20;;;;;;;;;23.00;14.25;;;;;6.44;100.00;102317.69;4998318;28;45374;-81
2023/01/30 08:22:46;;;;;;;;;14.75;11.00;;;;;6.51;100.00;102308.31;4996077;28;45442;-81
2023/01/30 08:25:11;;;;;;;;;12.00;9.00;;;;;6.60;100.00;102313.59;4996964;28;45476;-80
2023/01/30 08:27:37;;;;;;;;;19.75;14.75;;;;;6.65;100.00;102324.88;4981165;28;47065;-80
2023/01/30 08:30:02;;;;;;;;;24.00;17.25;;;;;6.62;100.00;102316.22;4991587;28;68725;-80
2023/01/30 08:32:28;;;;;;;;;15.75;11.00;;;;;6.66;100.00;102311.09;4995886;28;45323;-81
2023/01/30 08:34:53;;;;;;;;;19.00;13.50;;;;;6.69;100.00;102313.72;4995485;28;60527;-81
2023/01/30 08:37:18;;;;;;;;;16.25;10.50;;;;;6.75;100.00;102313.78;4977169;28;46330;-81
2023/01/30 08:39:44;;;;;;;;;16.25;11.75;;;;;6.81;100.00;102310.41;4976653;28;50906;-81
2023/01/30 08:42:09;;;;;;;;;17.50;13.25;;;;;6.82;100.00;102321.66;4976540;28;62895;-81
2023/01/30 08:44:34;;;;;;;;;15.00;8.75;;;;;6.84;100.00;102322.53;4976775;28;60004;-81
2023/01/30 08:47:00;;;;;;;;;21.00;12.00;;;;;6.86;100.00;102329.44;4958838;28;65917;-81
2023/01/30 08:49:25;;;;;;;;;8.75;7.50;;;;;6.83;100.00;102325.94;4959579;28;45434;-81
2023/01/30 08:51:50;;;;;;;;;13.00;10.00;;;;;6.89;100.00;102324.31;4976876;28;47821;-81
2023/01/30 08:54:16;;;;;;;;;13.75;11.00;;;;;7.00;100.00;102329.59;4977215;28;45480;-81
2023/01/30 08:56:41;;;;;;;;;14.50;13.25;;;;;6.94;100.00;102322.63;4943195;28;71641;-81
2023/01/30 08:59:06;;;;;;;;;13.50;8.75;;;;;6.96;100.00;102328.72;4993764;28;45364;-81
2023/01/30 09:01:32;;;;;;;;;19.75;12.75;;;;;7.04;100.00;102344.34;4979452;28;45795;-81
2023/01/30 09:03:57;;;;;;;;;25.25;11.50;;;;;7.05;100.00;102340.88;4997449;28;45470;-81
2023/01/30 09:06:23;;;;;;;;;19.50;12.75;;;;;7.09;100.00;102347.81;4962768;28;59285;-81
2023/01/30 09:08:48;;;;;;;;;17.00;11.50;;;;;7.11;100.00;102334.91;4996185;28;45455;-81
2023/01/30 09:11:13;;;;;;;;;18.25;12.50;;;;;7.19;100.00;102356.59;4979168;28;45429;-81
2023/01/30 09:13:42;;;;;;;;;16.50;11.50;;;;;7.21;100.00;102347.13;4978931;28;45351;-81
2023/01/30 09:16:09;;;;;;;;;22.50;14.75;;;;;7.18;100.00;102347.06;4996552;28;47168;-81
2023/01/30 09:18:40;;;;;;;;;16.75;13.25;;;;;7.22;100.00;102350.56;4978944;28;45887;-82
2023/01/30 09:21:05;;;;;;;;;20.50;13.00;;;;;7.12;100.00;102344.41;4996379;28;45248;-80
2023/01/30 09:23:30;;;;;;;;;18.00;14.25;;;;;7.14;100.00;102334.94;4978392;28;45357;-81
2023/01/30 09:25:56;;;;;;;;;15.50;11.50;;;;;7.14;100.00;102335.81;4996044;28;45793;-81
2023/01/30 09:28:21;;;;;;;;;22.50;15.25;;;;;7.20;100.00;102350.53;4996241;28;45408;-81
2023/01/30 09:30:47;;;;;;;;;13.25;8.75;;;;;7.22;100.00;102356.59;4978695;28;45340;-81
2023/01/30 09:33:15;;;;;;;;;16.75;11.75;;;;;7.27;100.00;102367.03;4995569;28;48455;-80
2023/01/30 09:35:40;;;;;;;;;22.75;12.00;;;;;7.22;100.00;102358.34;4995709;28;47147;-80
2023/01/30 09:38:06;;;;;;;;;21.00;12.50;;;;;7.27;100.00;102357.53;4977768;28;45413;-80
2023/01/30 09:40:31;;;;;;;;;9.00;6.25;;;;;7.31;100.00;102354.09;4995626;28;60281;-81
2023/01/30 09:43:20;;;;;;;;;19.75;15.00;;;;;7.35;100.00;102349.84;4995308;28;45580;-80
2023/01/30 09:45:54;;;;;;;;;17.75;11.25;;;;;7.37;100.00;102342.94;4985237;28;45423;-80
2023/01/30 09:48:28;;;;;;;;;10.75;10.25;;;;;7.41;100.00;102349.03;4995724;28;45321;-81
2023/01/30 09:51:31;;;;;;;;;16.00;11.00;;;;;7.39;100.00;102356.78;4995518;28;45342;-80
2023/01/30 09:54:23;;;;;;;;;18.50;16.00;;;;;7.29;100.00;102376.53;4995848;28;45382;-81
2023/01/30 09:57:13;;;;;;;;;19.00;12.50;;;;;7.16;100.00;102370.34;4978199;28;45771;-81
2023/01/30 10:00:10;;;;;;;;;13.25;11.50;;;;;7.04;100.00;102370.22;4978047;28;45370;-80
2023/01/30 10:02:46;;;;;;;;;19.00;12.50;;;;;6.95;100.00;102360.63;4976432;28;45431;-80
2023/01/30 10:05:12;;;;;;;;;15.50;9.00;;;;;6.84;100.00;102351.84;4978080;28;45317;-80
2023/01/30 10:08:03;;;;;;;;;18.50;11.50;;;;;6.86;100.00;102362.25;4977506;28;46277;-81
2023/01/30 10:10:48;;;;;;;;;15.00;9.25;;;;;6.85;100.00;102376.88;4934598;28;45657;-80
2023/01/30 10:13:39;;;;;;;;;20.50;12.25;;;;;6.86;100.00;102375.19;4934977;28;45395;-81
2023/01/30 10:16:34;;;;;;;;;19.00;11.75;;;;;7.03;100.00;102381.41;4934850;28;45466;-81
2023/01/30 10:19:05;;;;;;;;;15.25;14.00;;;;;7.09;100.00;102383.22;4934726;28;46132;-80
2023/01/30 10:21:59;;;;;;;;;17.25;12.25;;;;;7.12;100.00;102378.09;4934308;28;45446;-81
2023/01/30 10:24:34;;;;;;;;;22.75;14.00;;;;;7.19;100.00;102379.91;4934462;28;45387;-81
2023/01/30 10:27:00;;;;;;;;;19.75;11.50;;;;;7.22;100.00;102372.16;4934696;28;45427;-81
2023/01/30 10:29:30;;;;;;;;;16.25;11.00;;;;;7.32;100.00;102376.59;4933738;28;70188;-81
2023/01/30 10:32:40;;;;;;;;;18.50;10.00;;;;;7.38;100.00;102372.34;4918531;28;45895;-81
2023/01/30 10:35:15;;;;;;;;;18.00;11.50;;;;;7.45;100.00;102367.22;4946800;28;45512;-81
2023/01/30 10:37:52;;;;;;;;;12.75;11.00;;;;;7.52;100.00;102356.06;4921464;28;45412;-81
2023/01/30 10:40:34;;;;;;;;;13.25;11.25;;;;;7.63;100.00;102361.31;4937321;28;46414;-81
2023/01/30 10:43:34;;;;;;;;;14.00;10.75;;;;;7.75;100.00;102342.44;4937431;28;45766;-80
2023/01/30 10:46:09;;;;;;;;;10.50;6.50;;;;;7.91;100.00;102351.19;4899228;28;45354;-81
2023/01/30 10:48:56;;;;;;;;;19.00;13.00;;;;;8.05;100.00;102346.13;4923611;28;45673;-80
2023/01/30 10:51:46;;;;;;;;;10.00;7.50;;;;;8.19;100.00;102347.09;4951330;28;47263;-80
2023/01/30 10:54:16;;;;;;;;;13.25;10.50;;;;;8.44;100.00;102357.66;4954021;28;45839;-80
2023/01/30 10:56:53;;;;;;;;;12.75;10.50;;;;;8.51;100.00;102347.31;4941090;28;45396;-81
2023/01/30 10:59:25;;;;;;;;;14.00;11.00;;;;;8.61;100.00;102340.44;4940723;28;45460;-79
2023/01/30 11:02:25;;;;;;;;;9.50;8.00;;;;;8.76;100.00;102352.63;4936701;28;47062;-79
2023/01/30 11:04:59;;;;;;;;;9.75;8.00;;;;;8.78;100.00;102344.84;4919078;28;45438;-80
2023/01/30 11:07:26;;;;;;;;;18.50;10.50;;;;;8.82;100.00;102344.88;4937445;28;45446;-80
2023/01/30 11:09:51;;;;;;;;;16.50;8.25;;;;;8.89;100.00;102350.94;4905671;28;45404;-80
2023/01/30 11:12:17;;;;;;;;;13.75;9.00;;;;;8.93;100.00;102359.63;4903981;28;70983;-81
2023/01/30 11:15:03;;;;;;;;;9.75;9.00;;;;;8.90;100.00;102344.91;4936008;28;45411;-80
2023/01/30 11:17:34;;;;;;;;;12.50;6.50;;;;;8.92;100.00;102338.00;4956863;28;45423;-80
2023/01/30 11:20:20;;;;;;;;;9.25;8.50;;;;;9.03;100.00;102346.69;4940512;28;45493;-81
2023/01/30 11:23:03;;;;;;;;;10.50;5.75;;;;;9.13;100.00;102354.50;4979487;28;46671;-81
2023/01/30 11:25:28;;;;;;;;;10.50;8.50;;;;;9.20;100.00;102353.66;4996851;28;45398;-80